| weather.gov |
![]() |
![]() | |
| Orlando / Sanford Airport |
| metric |
| D a t e | Time (est) |
Wind (mph) | Vis. (mi.) | Weather | Sky Cond. | Temperature (ºF) | Relative Humidity | Wind Chill (°F) | Heat Index (°F) | Pressure | Precipitation (in.) | ||||||
|---|---|---|---|---|---|---|---|---|---|---|---|---|---|---|---|---|---|
| Air | Dwpt | 6 hour | altimeter (in) | sea level (mb) | 1 hr | 3 hr | 6 hr | ||||||||||
| Max. | Min. | ||||||||||||||||
| 16 | 09:53 | Calm | 10.00 | Fair | CLR | 53 | 41 | 64% | NA | NA | 30.19 | 1022.2 | |||||
| 16 | 08:53 | W 3 | 10.00 | Fair | CLR | 46 | 43 | 89% | NA | NA | 30.19 | 1022.4 | |||||
| 16 | 07:53 | W 3 | 10.00 | Fair | CLR | 38 | 37 | 97% | NA | NA | 30.17 | 1021.7 | |||||
| 16 | 06:53 | NW 3 | 10.00 | Fair | CLR | 38 | 37 | 43 | 36 | 97% | NA | NA | 30.16 | 1021.2 | |||
| 16 | 05:53 | W 3 | 10.00 | Fair | CLR | 37 | 35 | 93% | NA | NA | 30.15 | 1021.0 | |||||
| 16 | 04:53 | W 3 | 10.00 | Fair | CLR | 38 | 37 | 97% | NA | NA | 30.15 | 1020.8 | |||||
| 16 | 03:53 | W 5 | 10.00 | Fair | CLR | 36 | 34 | 93% | 32 | NA | 30.14 | 1020.5 | |||||
| 16 | 02:53 | Calm | 10.00 | Fair | CLR | 40 | 37 | 89% | NA | NA | 30.13 | 1020.2 | |||||
| 16 | 01:53 | W 3 | 10.00 | Fair | CLR | 41 | 37 | 86% | NA | NA | 30.15 | 1020.8 | |||||
| 16 | 00:53 | W 3 | 10.00 | Fair | CLR | 42 | 38 | 50 | 39 | 85% | NA | NA | 30.15 | 1020.9 | |||
| 15 | 23:53 | W 5 | 10.00 | Fair | CLR | 41 | 38 | 89% | 38 | NA | 30.16 | 1021.3 | |||||
| 15 | 22:53 | Calm | 10.00 | Fair | CLR | 45 | 41 | 86% | NA | NA | 30.16 | 1021.4 | |||||
| 15 | 21:53 | SE 7 | 10.00 | Fair | CLR | 45 | 38 | 77% | 41 | NA | 30.16 | 1021.3 | |||||
| 15 | 20:53 | Calm | 10.00 | Fair | CLR | 46 | 37 | 71% | NA | NA | 30.18 | 1022.0 | |||||
| 15 | 19:53 | NE 5 | 10.00 | Fair | CLR | 49 | 35 | 59% | 47 | NA | 30.17 | 1021.5 | |||||
| 15 | 18:53 | W 6 | 10.00 | Fair | CLR | 50 | 33 | 59 | 50 | 52% | 48 | NA | 30.16 | 1021.2 | |||
| 15 | 17:53 | N 3 | 10.00 | Fair | CLR | 55 | 31 | 40% | NA | NA | 30.14 | 1020.6 | |||||
| 15 | 16:53 | N 6 | 10.00 | Fair | CLR | 58 | 29 | 33% | NA | NA | 30.13 | 1020.3 | |||||
| 15 | 15:53 | N 8 | 10.00 | Fair | CLR | 59 | 29 | 32% | NA | NA | 30.13 | 1020.3 | |||||
| 15 | 14:53 | Vrbl 6 | 10.00 | Fair | CLR | 58 | 29 | 33% | NA | NA | 30.14 | 1020.6 | |||||
| 15 | 13:53 | N 6 | 10.00 | Fair | CLR | 58 | 29 | 33% | NA | NA | 30.16 | 1021.2 | |||||
| 15 | 12:53 | N 6 | 10.00 | Fair | CLR | 55 | 29 | 55 | 33 | 37% | NA | NA | 30.19 | 1022.4 | |||
| 15 | 11:53 | NW 8 | 10.00 | Fair | CLR | 52 | 27 | 38% | NA | NA | 30.22 | 1023.2 | |||||
| 15 | 10:53 | NW 10 | 10.00 | Fair | CLR | 49 | 28 | 44% | 45 | NA | 30.24 | 1023.9 | |||||
| 15 | 09:53 | NW 8 | 10.00 | Fair | CLR | 46 | 30 | 54% | 42 | NA | 30.25 | 1024.3 | |||||
| 15 | 08:53 | NW 7 | 10.00 | Fair | CLR | 40 | 31 | 70% | 35 | NA | 30.25 | 1024.4 | |||||
| 15 | 07:53 | NW 8 | 10.00 | Fair | CLR | 35 | 30 | 82% | 28 | NA | 30.23 | 1023.8 | |||||
| 15 | 06:53 | W 9 | 10.00 | Fair | CLR | 34 | 30 | 40 | 33 | 85% | 27 | NA | 30.20 | 1022.8 | |||
| 15 | 05:53 | W 5 | 10.00 | Fair | CLR | 34 | 30 | 85% | 29 | NA | 30.18 | 1022.1 | |||||
| 15 | 04:53 | W 5 | 10.00 | Fair | CLR | 34 | 30 | 85% | 29 | NA | 30.17 | 1021.5 | |||||
| 15 | 03:53 | W 5 | 10.00 | Fair | CLR | 36 | 30 | 79% | 32 | NA | 30.17 | 1021.5 | |||||
| 15 | 02:53 | NW 6 | 10.00 | Fair | CLR | 37 | 30 | 76% | 32 | NA | 30.15 | 1021.1 | |||||
| 15 | 01:53 | NW 6 | 10.00 | Fair | CLR | 39 | 31 | 73% | 35 | NA | 30.15 | 1021.0 | |||||
| 15 | 00:53 | NW 6 | 10.00 | Fair | CLR | 39 | 31 | 47 | 39 | 73% | 35 | NA | 30.16 | 1021.3 | |||
| 14 | 23:53 | NW 8 | 10.00 | Fair | CLR | 40 | 31 | 70% | 35 | NA | 30.17 | 1021.5 | |||||
| 14 | 22:53 | NW 8 | 10.00 | Fair | CLR | 41 | 31 | 67% | 36 | NA | 30.16 | 1021.3 | |||||
| 14 | 21:53 | NW 8 | 10.00 | Fair | CLR | 43 | 32 | 65% | 38 | NA | 30.16 | 1021.3 | |||||
| 14 | 20:53 | NW 8 | 10.00 | Fair | CLR | 45 | 32 | 61% | 41 | NA | 30.15 | 1020.9 | |||||
| 14 | 19:53 | NW 12 | 10.00 | Fair | CLR | 47 | 31 | 54% | 42 | NA | 30.13 | 1020.3 | |||||
| 14 | 18:53 | NW 9 | 10.00 | Fair | CLR | 46 | 31 | 53 | 46 | 56% | 41 | NA | 30.11 | 1019.5 | |||
| 14 | 17:53 | W 10 | 10.00 | Fair | CLR | 49 | 30 | 48% | 45 | NA | 30.07 | 1018.3 | |||||
| 14 | 16:53 | W 17 | 10.00 | Fair | CLR | 52 | 29 | 41% | NA | NA | 30.06 | 1017.7 | |||||
| 14 | 15:53 | W 18 G 24 | 10.00 | Fair | CLR | 53 | 30 | 41% | NA | NA | 30.05 | 1017.5 | |||||
| 14 | 14:53 | W 16 G 24 | 10.00 | Fair | CLR | 53 | 29 | 40% | NA | NA | 30.03 | 1017.0 | |||||
| 14 | 13:53 | W 14 | 10.00 | Fair | CLR | 51 | 30 | 45% | NA | NA | 30.04 | 1017.1 | |||||
| 14 | 12:53 | W 13 G 21 | 10.00 | Fair | CLR | 50 | 29 | 50 | 37 | 44% | 45 | NA | 30.07 | 1018.3 | |||
| 14 | 11:53 | NW 17 G 22 | 10.00 | Fair | CLR | 48 | 29 | 48% | 42 | NA | 30.11 | 1019.7 | |||||
| 14 | 10:53 | NW 14 | 10.00 | Fair | CLR | 47 | 30 | 52% | 41 | NA | 30.13 | 1020.4 | |||||
| 14 | 09:53 | NW 20 G 29 | 10.00 | Fair | CLR | 44 | 29 | 55% | 36 | NA | 30.13 | 1020.3 | |||||
| 14 | 08:53 | NW 20 G 26 | 10.00 | Fair | CLR | 41 | 30 | 65% | 32 | NA | 30.12 | 1019.9 | |||||
| 14 | 07:53 | W 15 | 10.00 | Fair | CLR | 38 | 30 | 73% | 29 | NA | 30.10 | 1019.2 | |||||
| 14 | 06:53 | W 13 | 10.00 | Fair | CLR | 38 | 30 | 44 | 38 | 73% | 30 | NA | 30.07 | 1018.3 | |||
| 14 | 05:53 | W 13 | 10.00 | Fair | CLR | 38 | 31 | 76% | 30 | NA | 30.06 | 1017.8 | |||||
| 14 | 04:53 | NW 13 | 10.00 | Fair | CLR | 39 | 31 | 73% | 31 | NA | 30.04 | 1017.2 | |||||
| 14 | 03:53 | NW 15 G 22 | 10.00 | Fair | CLR | 40 | 32 | 73% | 32 | NA | 30.03 | 1016.7 | |||||
| 14 | 02:53 | NW 16 G 26 | 10.00 | Fair | CLR | 41 | 32 | 70% | 33 | NA | 30.02 | 1016.6 | |||||
| 14 | 01:53 | NW 15 | 10.00 | Fair | CLR | 43 | 31 | 63% | 36 | NA | 30.02 | 1016.5 | |||||
| 14 | 00:53 | NW 13 | 10.00 | Fair | CLR | 44 | 30 | 54 | 43 | 58% | 38 | NA | 30.02 | 1016.4 | |||
| 13 | 23:53 | NW 16 | 10.00 | Fair | CLR | 45 | 30 | 56% | 38 | NA | 30.02 | 1016.5 | |||||
| 13 | 22:53 | NW 17 G 28 | 10.00 | Light Rain | BKN044 | 47 | 32 | 56% | 40 | NA | 30.01 | 1016.3 | |||||
| 13 | 21:53 | NW 22 G 29 | 10.00 | Mostly Cloudy and Breezy | BKN042 | 50 | 36 | 59% | 43 | NA | 29.98 | 1015.2 | |||||
| 13 | 20:53 | W 17 G 24 | 10.00 | Mostly Cloudy | BKN038 | 53 | 39 | 59% | NA | NA | 29.96 | 1014.3 | |||||
| 13 | 19:53 | W 17 G 30 | 10.00 | Overcast | OVC039 | 54 | 43 | 67% | NA | NA | 29.93 | 1013.5 | |||||
| 13 | 18:53 | W 15 | 10.00 | A Few Clouds | FEW041 | 54 | 46 | 64 | 54 | 75% | NA | NA | 29.90 | 1012.6 | |||
| 13 | 17:53 | W 18 G 28 | 10.00 | Mostly Cloudy | BKN043 | 58 | 46 | 65% | NA | NA | 29.87 | 1011.5 | |||||
| 13 | 16:53 | W 14 | 10.00 | Overcast | OVC043 | 61 | 46 | 58% | NA | NA | 29.85 | 1010.9 | |||||
| 13 | 15:53 | W 14 G 23 | 10.00 | Overcast | OVC043 | 61 | 47 | 60% | NA | NA | 29.85 | 1010.7 | |||||
| 13 | 14:53 | W 16 | 10.00 | Mostly Cloudy | BKN040 | 63 | 47 | 56% | NA | NA | 29.83 | 1010.0 | |||||
| 13 | 13:53 | W 20 G 26 | 10.00 | Overcast | BKN029 OVC033 | 62 | 51 | 67% | NA | NA | 29.84 | 1010.4 | |||||
| 13 | 12:53 | NW 16 | 10.00 | Overcast | BKN018 BKN024 OVC033 | 62 | 56 | 67 | 60 | 80% | NA | NA | 29.85 | 1010.6 | 0.26 | ||
| 13 | 11:53 | NW 17 | 10.00 | A Few Clouds | FEW015 FEW022 | 66 | 58 | 75% | NA | NA | 29.86 | 1011.1 | |||||
| 13 | 10:53 | W 15 | 10.00 | Overcast | FEW011 OVC021 | 66 | 62 | 87% | NA | NA | 29.89 | 1012.1 | |||||
| D a t e | Time (est) |
Wind (mph) | Vis. (mi.) | Weather | Sky Cond. | Air | Dwpt | Max. | Min. | Relative Humidity | Wind Chill (°F) | Heat Index (°F) | altimeter (in.) | sea level (mb) |
1 hr | 3 hr | 6 hr |
| 6 hour | |||||||||||||||||
| Temperature (ºF) | Pressure | Precipitation (in.) | |||||||||||||||
| National Weather Service Southern Region Headquarters Fort Worth, Texas Disclaimer |
Last Modified: Febuary, 7 2012 Privacy Policy |
|